Strona główna
METAR-TAF:

METAR-TAF

Lotnisko :

Warkala, Algieria

Szerokość geograficzna: 31-55N, Długość geograficzna: 005-24E, wysokość: 141 m

Aktualna obserwacja pogody

Raport powstał 2 godziny i 57 minut temu, godzina 17:40 UTC
Wiatr 12 kt od wschodnio-północny wschód
Temperatura 24°C
Wilgotność 36%
Ciśnienie 1016 hPa
Widzialność: 5000 m

METAR: DAUU 141740Z 07012KT 5000 NSC 24/08 Q1016

czas: 21:37 (20:37 UTC)

Prognoza

Raport powstał 3 godziny i 37 minut temu, godzina 17:00 UTC
Prognoza ważna od 14 godzina 18 UTC do 15 godzina 03 UTC
Wiatr 14 kt od wschód
Widzialność: 6000 m
Przejściowo
od 14 godzina 18 UTC do 14 godzina 21 UTC
Wiatr 15 kt od wschód w porywach dochodzący do 25 kt
Widzialność: 4000 m
zamieć niska piaskowa

TAF: DAUU 141700Z 1418/1503 09014KT 6000 NSC TEMPO 1418/1421 09015G25KT 4000 DRSA

Obserwacja i prognoza pogody dla ponad 4000 lotnisk (raport METAR i TAF).

Dostępne stacje oznaczono żółtymi i czerwonymi punktami na mapie.

Najedź kursorem aby zobaczyć nazwę stacji.

Kliknij aby zobaczyć obserwacje i prognozy pogody.

Aby zmienić mapę: kliknij na zielony przycisk z czarnym krzyżykiem, aby powiększyć; na zielony przycisk z myślnikiem, aby pomniejszyć; na zielone strzałki, aby przejść do map sąsiednich.


METAR-TAF: